Time;durP1;ratioP1;P1;durP2;ratioP2;P2;SDS_P1;SDS_P2;PMS_P1;PMS_P2;Temp;Humidity;BMP_temperature;BMP_pressure;BME280_temperature;BME280_humidity;BME280_pressure;Samples;Min_cycle;Max_cycle;Signal;HPM_P1;HPM_P2
2022/12/04 00:02:03;;;;;;;;;28.75;23.00;;;;;5.44;66.88;100918.31;4986856;28;45394;-65
2022/12/04 00:04:29;;;;;;;;;29.75;25.75;;;;;5.44;66.58;100905.06;5016605;28;45308;-65
2022/12/04 00:06:54;;;;;;;;;25.50;21.25;;;;;5.43;66.90;100919.22;4987340;28;54717;-65
2022/12/04 00:09:21;;;;;;;;;24.50;22.75;;;;;5.37;66.92;100924.53;5016898;28;45272;-65
2022/12/04 00:11:46;;;;;;;;;29.00;22.50;;;;;5.31;66.96;100911.34;5016945;28;45258;-65
2022/12/04 00:14:11;;;;;;;;;25.75;18.00;;;;;5.27;66.48;100907.84;5011136;28;45605;-65
2022/12/04 00:16:37;;;;;;;;;26.50;23.25;;;;;5.27;66.02;100915.78;5020053;28;45807;-65
2022/12/04 00:19:04;;;;;;;;;32.25;22.75;;;;;5.24;67.19;100910.53;5019693;28;46142;-65
2022/12/04 00:21:29;;;;;;;;;26.25;22.00;;;;;5.27;66.57;100909.63;5013797;28;45469;-65
2022/12/04 00:23:55;;;;;;;;;26.25;21.00;;;;;5.22;67.16;100907.03;5016841;28;45328;-65
2022/12/04 00:26:23;;;;;;;;;27.25;25.75;;;;;5.24;66.54;100918.47;5002990;28;47019;-65
2022/12/04 00:28:50;;;;;;;;;28.50;25.25;;;;;5.24;67.17;100912.31;5018974;28;45804;-65
2022/12/04 00:31:21;;;;;;;;;28.25;23.25;;;;;5.28;67.04;100919.31;5009994;28;45306;-65
2022/12/04 00:33:47;;;;;;;;;34.50;22.25;;;;;5.30;66.82;100912.25;5015618;28;45611;-65
2022/12/04 00:36:15;;;;;;;;;30.00;22.75;;;;;5.29;66.79;100906.06;5010362;28;45757;-65
2022/12/04 00:38:41;;;;;;;;;27.50;25.75;;;;;5.29;67.05;100915.78;5019967;28;45814;-65
2022/12/04 00:41:11;;;;;;;;;25.50;24.25;;;;;5.28;66.59;100900.78;4985819;28;45495;-65
2022/12/04 00:43:37;;;;;;;;;28.50;27.00;;;;;5.26;67.08;100899.94;5018212;28;45523;-65
2022/12/04 00:46:02;;;;;;;;;26.00;24.50;;;;;5.24;67.00;100901.72;5016280;28;46255;-65
2022/12/04 00:48:28;;;;;;;;;26.25;21.50;;;;;5.22;66.64;100892.91;5020423;28;45378;-65
2022/12/04 00:50:54;;;;;;;;;29.50;23.75;;;;;5.22;66.93;100898.22;4997843;28;45369;-65
2022/12/04 00:53:21;;;;;;;;;28.00;24.25;;;;;5.24;66.85;100891.13;5020233;28;45897;-65
2022/12/04 00:55:46;;;;;;;;;30.50;23.00;;;;;5.27;66.64;100905.22;5018516;28;45483;-65
2022/12/04 00:58:12;;;;;;;;;30.50;21.75;;;;;5.26;66.95;100897.28;5018432;28;45628;-65
2022/12/04 01:00:42;;;;;;;;;23.00;21.50;;;;;5.29;66.75;100906.06;5005016;28;45361;-65
2022/12/04 01:03:08;;;;;;;;;28.00;27.25;;;;;5.28;67.17;100911.38;5015768;28;45654;-65
2022/12/04 01:05:42;;;;;;;;;29.00;24.75;;;;;5.25;67.14;100912.28;4998527;28;47318;-65
2022/12/04 01:08:08;;;;;;;;;30.00;18.75;;;;;5.22;67.13;100908.78;5016669;28;45785;-65
2022/12/04 01:10:34;;;;;;;;;28.50;24.75;;;;;5.20;66.75;100900.88;5015404;28;45364;-65
2022/12/04 01:12:59;;;;;;;;;29.75;27.75;;;;;5.17;66.86;100888.53;5018013;28;45295;-65
2022/12/04 01:15:24;;;;;;;;;26.25;24.00;;;;;5.22;66.66;100896.44;5014446;28;45675;-65
2022/12/04 01:17:50;;;;;;;;;26.00;19.25;;;;;5.20;66.51;100890.28;5015613;28;51657;-65
2022/12/04 01:20:16;;;;;;;;;30.50;19.75;;;;;5.19;67.13;100893.81;5007448;28;45289;-65
2022/12/04 01:22:41;;;;;;;;;32.25;28.00;;;;;5.20;67.35;100893.78;5000037;28;45478;-65
2022/12/04 01:25:07;;;;;;;;;33.00;30.00;;;;;5.20;66.87;100896.44;4995303;28;46991;-65
2022/12/04 01:27:33;;;;;;;;;29.25;25.50;;;;;5.20;66.74;100892.94;5018689;28;45317;-65
2022/12/04 01:29:58;;;;;;;;;32.00;28.00;;;;;5.17;67.31;100893.81;5014059;28;45473;-65
2022/12/04 01:32:24;;;;;;;;;26.25;25.25;;;;;5.17;67.43;100893.81;5018689;28;45341;-65
2022/12/04 01:34:49;;;;;;;;;28.00;23.00;;;;;5.15;66.94;100890.31;5004464;28;49858;-65
2022/12/04 01:37:14;;;;;;;;;23.75;23.50;;;;;5.18;66.93;100887.66;5019302;28;45365;-65
2022/12/04 01:39:40;;;;;;;;;28.25;23.25;;;;;5.20;67.16;100895.56;5004836;28;45352;-65
2022/12/04 01:42:08;;;;;;;;;28.00;22.75;;;;;5.19;67.10;100896.44;5007022;28;45579;-65
2022/12/04 01:44:34;;;;;;;;;30.00;27.00;;;;;5.13;67.51;100893.88;5018535;28;46459;-65
2022/12/04 01:47:00;;;;;;;;;31.25;24.25;;;;;5.14;67.28;100885.88;5015566;28;45281;-65
2022/12/04 01:49:36;;;;;;;;;19.50;17.25;;;;;5.15;66.99;100892.94;5016168;28;45667;-65
2022/12/04 01:52:20;;;;;;;;;28.25;25.75;;;;;5.12;67.54;100892.97;5003110;28;45417;-65
2022/12/04 01:54:50;;;;;;;;;36.75;28.75;;;;;5.07;67.56;100878.91;5010886;28;47184;-65
2022/12/04 01:57:21;;;;;;;;;31.75;29.25;;;;;5.11;67.45;100891.22;5010320;28;45879;-65
2022/12/04 01:59:54;;;;;;;;;32.50;29.25;;;;;5.10;67.30;100891.25;5000485;28;45553;-65
2022/12/04 02:02:32;;;;;;;;;34.75;28.25;;;;;5.15;67.17;100892.94;5001843;28;45582;-65
2022/12/04 02:05:00;;;;;;;;;23.75;21.75;;;;;5.16;66.63;100892.06;4989559;28;47133;-65
2022/12/04 02:07:27;;;;;;;;;37.00;25.50;;;;;5.16;67.12;100889.44;5011295;28;45809;-65
2022/12/04 02:09:54;;;;;;;;;38.25;29.75;;;;;5.17;67.14;100890.28;5016312;28;45554;-65
2022/12/04 02:12:31;;;;;;;;;32.25;24.75;;;;;5.12;67.52;100895.63;5013530;28;45273;-65
2022/12/04 02:15:12;;;;;;;;;30.50;28.00;;;;;5.12;67.97;100907.97;5018099;28;46770;-65
2022/12/04 02:18:08;;;;;;;;;32.75;28.00;;;;;5.11;67.20;100896.53;5017439;28;45790;-65
2022/12/04 02:20:38;;;;;;;;;31.75;28.00;;;;;5.13;67.55;100896.53;5012810;28;45487;-65
2022/12/04 02:23:25;;;;;;;;;33.75;27.00;;;;;5.14;67.54;100901.78;5017294;28;45416;-65
2022/12/04 02:26:02;;;;;;;;;38.25;30.75;;;;;5.12;67.21;100898.25;5015540;28;46080;-65
2022/12/04 02:28:40;;;;;;;;;37.75;29.75;;;;;5.15;67.39;100900.88;5004434;28;45808;-65
2022/12/04 02:31:16;;;;;;;;;27.75;26.50;;;;;5.18;67.23;100897.34;5016637;28;45420;-65
2022/12/04 02:33:49;;;;;;;;;33.50;29.50;;;;;5.26;66.74;100886.69;5018971;28;45544;-65
2022/12/04 02:36:21;;;;;;;;;33.50;29.00;;;;;5.30;67.13;100883.16;5011585;28;45577;-65
2022/12/04 02:38:54;;;;;;;;;37.00;33.75;;;;;5.31;67.18;100883.13;5014618;28;45831;-65
2022/12/04 02:41:28;;;;;;;;;36.25;31.25;;;;;5.33;67.47;100881.34;5012172;28;47298;-65
2022/12/04 02:44:03;;;;;;;;;36.00;28.50;;;;;5.30;67.40;100885.78;5008513;28;45845;-65
2022/12/04 02:46:37;;;;;;;;;31.75;28.00;;;;;5.30;67.94;100894.59;5011420;28;46167;-65
2022/12/04 02:49:09;;;;;;;;;30.25;29.25;;;;;5.28;67.40;100882.25;5017783;28;45336;-65
2022/12/04 02:51:38;;;;;;;;;37.00;28.75;;;;;5.24;66.87;100883.19;5011009;28;45483;-65
2022/12/04 02:54:10;;;;;;;;;36.00;29.75;;;;;5.29;67.26;100899.91;5014431;28;45452;-65
2022/12/04 02:56:41;;;;;;;;;34.00;26.00;;;;;5.26;66.87;100899.94;5018400;28;45317;-65
2022/12/04 02:59:20;;;;;;;;;29.25;22.75;;;;;5.22;66.95;100896.44;5009846;28;45439;-65
2022/12/04 03:01:53;;;;;;;;;31.00;29.50;;;;;5.18;66.84;100897.34;4994147;28;47005;-65
2022/12/04 03:04:25;;;;;;;;;34.75;28.75;;;;;5.12;67.10;100889.47;5017034;28;45496;-65
2022/12/04 03:06:57;;;;;;;;;33.25;28.00;;;;;5.15;67.83;100886.78;5011078;28;45665;-65
2022/12/04 03:09:29;;;;;;;;;31.00;26.75;;;;;5.12;67.62;100866.50;5016231;28;45491;-65
2022/12/04 03:12:00;;;;;;;;;30.25;26.75;;;;;5.16;67.21;100884.13;5016051;28;45369;-65
2022/12/04 03:14:33;;;;;;;;;26.75;24.50;;;;;5.18;67.58;100877.06;5012711;28;45313;-65
2022/12/04 03:17:16;;;;;;;;;35.75;32.50;;;;;5.13;67.71;100862.13;5013822;28;45523;-65
2022/12/04 03:19:52;;;;;;;;;32.50;27.25;;;;;5.17;67.63;100864.69;4982480;28;45368;-65
2022/12/04 03:22:21;;;;;;;;;31.25;27.00;;;;;5.17;67.67;100867.34;5008548;28;45516;-65
2022/12/04 03:24:51;;;;;;;;;38.50;32.50;;;;;5.23;67.49;100866.44;5005706;28;45448;-65
2022/12/04 03:27:44;;;;;;;;;33.75;24.50;;;;;5.24;67.61;100864.66;5013856;28;46442;-65
2022/12/04 03:30:20;;;;;;;;;31.25;28.75;;;;;5.28;67.74;100863.72;5013377;28;45522;-65
2022/12/04 03:33:09;;;;;;;;;30.50;26.00;;;;;5.34;67.59;100863.69;5020935;28;45316;-65
2022/12/04 03:35:37;;;;;;;;;30.75;26.50;;;;;5.34;66.76;100863.69;5017747;28;45562;-65
2022/12/04 03:38:34;;;;;;;;;32.50;30.25;;;;;5.35;68.27;100865.44;4998786;28;46850;-65
2022/12/04 03:41:17;;;;;;;;;23.50;21.00;;;;;5.29;67.57;100862.84;4983679;28;45441;-65
2022/12/04 03:44:13;;;;;;;;;32.50;22.75;;;;;5.28;67.07;100861.97;5003655;28;45576;-65
2022/12/04 03:46:46;;;;;;;;;38.75;30.75;;;;;5.29;67.59;100862.84;5016982;28;46691;-65
2022/12/04 03:49:12;;;;;;;;;32.75;28.75;;;;;5.33;67.20;100856.63;5012124;28;45546;-65
2022/12/04 03:51:44;;;;;;;;;33.25;29.50;;;;;5.35;67.60;100855.72;5009546;28;45635;-65
2022/12/04 03:54:22;;;;;;;;;32.25;27.25;;;;;5.32;67.71;100847.81;5019277;28;45433;-65
2022/12/04 03:56:53;;;;;;;;;29.00;20.75;;;;;5.28;67.51;100837.25;5007300;28;45418;-65
2022/12/04 03:59:26;;;;;;;;;30.25;24.75;;;;;5.32;67.59;100831.06;5017099;28;45519;-65
2022/12/04 04:01:58;;;;;;;;;33.00;24.75;;;;;5.30;67.59;100816.97;5020561;28;45371;-65
2022/12/04 04:04:31;;;;;;;;;36.50;32.75;;;;;5.32;67.64;100809.88;5018618;28;46782;-65
2022/12/04 04:07:03;;;;;;;;;31.50;27.50;;;;;5.34;67.93;100806.31;5016172;28;45417;-65
2022/12/04 04:09:37;;;;;;;;;36.75;30.00;;;;;5.36;67.25;100796.63;5020350;28;46569;-65
2022/12/04 04:12:29;;;;;;;;;34.25;31.25;;;;;5.37;67.32;100800.13;5017411;28;45299;-65
2022/12/04 04:26:25;;;;;;;;;33.75;26.75;;;;;5.29;66.83;100783.44;5020232;28;45318;-65
2022/12/04 04:28:50;;;;;;;;;30.50;28.75;;;;;5.27;66.47;100785.25;5014434;28;45527;-65
2022/12/04 04:31:34;;;;;;;;;31.50;26.75;;;;;5.34;66.80;100797.50;4997659;28;47281;-65
2022/12/04 04:34:09;;;;;;;;;36.50;29.25;;;;;5.32;67.17;100800.16;5010453;28;45863;-65
2022/12/04 04:36:53;;;;;;;;;33.25;24.25;;;;;5.31;66.56;100801.09;5012629;28;45325;-65
2022/12/04 04:39:24;;;;;;;;;28.25;25.50;;;;;5.24;66.90;100801.16;5007193;28;45535;-65
2022/12/04 04:42:14;;;;;;;;;35.75;30.25;;;;;5.23;67.57;100794.97;5011760;28;45714;-65
2022/12/04 04:45:06;;;;;;;;;27.75;25.50;;;;;5.26;67.99;100796.69;5018535;28;45360;-65
2022/12/04 04:48:04;;;;;;;;;37.75;31.25;;;;;5.29;67.49;100804.63;5009675;28;46687;-65
2022/12/04 04:50:32;;;;;;;;;34.75;28.50;;;;;5.32;67.24;100800.16;5014158;28;45467;-65
2022/12/04 04:53:03;;;;;;;;;38.50;34.50;;;;;5.35;67.33;100804.56;5019910;28;45428;-65
2022/12/04 04:55:33;;;;;;;;;38.25;29.00;;;;;5.34;67.57;100797.50;5003743;28;45257;-65
2022/12/04 04:58:25;;;;;;;;;32.00;28.75;;;;;5.43;67.09;100793.88;5014663;28;45431;-65
2022/12/04 05:01:03;;;;;;;;;31.50;29.50;;;;;5.44;67.06;100800.94;5003009;28;46817;-65
2022/12/04 05:03:29;;;;;;;;;35.00;32.50;;;;;5.39;66.83;100799.19;5016093;28;46375;-65
2022/12/04 05:05:55;;;;;;;;;30.00;26.75;;;;;5.40;66.92;100800.09;5015560;28;45931;-65
2022/12/04 05:08:21;;;;;;;;;35.25;33.00;;;;;5.44;67.41;100796.53;5020435;28;45629;-65
2022/12/04 05:10:47;;;;;;;;;29.50;26.25;;;;;5.48;67.40;100815.88;5022188;28;45375;-65
2022/12/04 05:13:14;;;;;;;;;37.75;32.25;;;;;5.46;67.15;100812.38;5019194;28;46232;-65
2022/12/04 05:15:40;;;;;;;;;30.25;24.25;;;;;5.43;67.76;100810.66;5019222;28;45317;-65
2022/12/04 05:18:05;;;;;;;;;32.75;29.75;;;;;5.42;66.41;100805.38;5020285;28;45404;-65
2022/12/04 05:20:31;;;;;;;;;28.00;27.50;;;;;5.44;67.38;100809.75;5020041;28;45258;-65
2022/12/04 05:22:57;;;;;;;;;24.50;21.00;;;;;5.40;67.10;100797.47;5019927;28;46442;-65
2022/12/04 05:25:22;;;;;;;;;32.00;29.00;;;;;5.38;66.60;100797.47;5015155;28;45421;-65
2022/12/04 05:27:47;;;;;;;;;34.50;32.00;;;;;5.38;66.67;100818.66;5020125;28;45306;-65
2022/12/04 05:30:15;;;;;;;;;30.00;21.00;;;;;5.29;67.13;100801.97;5008239;28;45682;-65
2022/12/04 05:32:41;;;;;;;;;29.00;22.50;;;;;5.32;67.75;100801.94;5008316;28;45574;-65
2022/12/04 05:35:07;;;;;;;;;30.50;29.00;;;;;5.37;67.12;100816.00;4989254;28;45329;-65
2022/12/04 05:37:36;;;;;;;;;31.75;27.50;;;;;5.34;67.45;100821.34;5018833;28;45305;-65
2022/12/04 05:40:04;;;;;;;;;29.75;26.00;;;;;5.32;66.98;100823.13;5016300;28;45897;-65
2022/12/04 05:42:29;;;;;;;;;34.00;31.25;;;;;5.28;67.02;100821.38;5016521;28;45440;-65
2022/12/04 05:44:55;;;;;;;;;26.75;23.50;;;;;5.36;66.65;100838.97;5014866;28;45457;-65
2022/12/04 05:47:20;;;;;;;;;31.00;26.50;;;;;5.36;67.17;100840.72;5017716;28;45301;-65
2022/12/04 05:49:45;;;;;;;;;35.00;29.75;;;;;5.37;67.17;100840.69;5010283;28;45381;-65
2022/12/04 05:52:11;;;;;;;;;34.25;27.25;;;;;5.41;67.65;100841.56;5018385;28;52245;-65
2022/12/04 05:54:36;;;;;;;;;39.75;30.75;;;;;5.44;67.75;100845.94;5009587;28;45388;-65
2022/12/04 05:57:02;;;;;;;;;40.50;35.00;;;;;5.50;67.45;100852.06;5019601;28;45439;-65
2022/12/04 05:59:27;;;;;;;;;36.00;30.50;;;;;5.46;66.38;100850.31;5013729;28;45353;-65
2022/12/04 06:01:52;;;;;;;;;32.00;29.50;;;;;5.48;67.23;100851.22;5016629;28;46172;-65
2022/12/04 06:04:18;;;;;;;;;31.25;28.00;;;;;5.53;67.78;100854.69;5015898;28;45396;-65
2022/12/04 06:06:43;;;;;;;;;44.00;37.25;;;;;5.57;67.68;100848.44;5000162;28;48266;-65
2022/12/04 06:09:09;;;;;;;;;30.75;29.50;;;;;5.57;66.79;100858.19;5014986;28;45492;-65
2022/12/04 06:11:37;;;;;;;;;39.75;35.25;;;;;5.52;67.14;100844.09;5016723;28;45350;-65
2022/12/04 06:14:05;;;;;;;;;30.75;26.75;;;;;5.53;67.22;100845.84;5017962;28;45684;-65
2022/12/04 06:16:34;;;;;;;;;44.75;33.25;;;;;5.56;67.26;100857.31;5011960;28;45392;-65
2022/12/04 06:19:03;;;;;;;;;40.25;31.25;;;;;5.53;67.05;100848.50;5013179;28;45400;-64
2022/12/04 06:21:32;;;;;;;;;35.00;34.25;;;;;5.53;66.70;100851.13;5000826;28;45384;-64
2022/12/04 06:23:57;;;;;;;;;34.50;31.00;;;;;5.51;67.48;100843.25;5013920;28;45813;-65
2022/12/04 06:26:23;;;;;;;;;34.00;30.00;;;;;5.53;67.32;100836.16;5018115;28;45499;-65
2022/12/04 06:28:51;;;;;;;;;29.75;27.75;;;;;5.55;67.28;100836.13;4989687;28;45556;-64
2022/12/04 06:31:17;;;;;;;;;32.00;27.00;;;;;5.59;66.70;100844.94;5007530;28;47011;-65
2022/12/04 06:33:43;;;;;;;;;37.50;27.75;;;;;5.61;67.26;100849.28;5012849;28;45782;-65
2022/12/04 06:36:15;;;;;;;;;37.25;30.50;;;;;5.60;66.63;100844.91;5016482;28;45502;-65
2022/12/04 06:38:41;;;;;;;;;32.00;26.50;;;;;5.60;66.96;100858.16;5017732;28;45313;-65
2022/12/04 06:41:09;;;;;;;;;35.00;30.25;;;;;5.55;67.13;100858.19;5015889;28;45317;-65
2022/12/04 06:43:35;;;;;;;;;28.00;25.00;;;;;5.56;67.71;100873.19;5017406;28;45344;-65
2022/12/04 06:46:00;;;;;;;;;34.50;29.00;;;;;5.61;67.43;100865.19;5011194;28;45428;-65
2022/12/04 06:48:28;;;;;;;;;42.25;34.75;;;;;5.62;67.31;100866.94;4996762;28;45536;-65
2022/12/04 06:51:06;;;;;;;;;44.25;31.75;;;;;5.64;67.26;100869.59;5008881;28;46179;-65
2022/12/04 06:53:33;;;;;;;;;30.25;26.00;;;;;5.62;67.21;100869.59;4984103;28;45881;-65
2022/12/04 06:56:01;;;;;;;;;33.50;28.75;;;;;5.58;66.50;100862.59;5011367;28;45448;-65
2022/12/04 06:58:27;;;;;;;;;37.75;29.00;;;;;5.56;66.94;100865.25;5004295;28;45955;-65
2022/12/04 07:00:52;;;;;;;;;36.75;32.00;;;;;5.54;67.23;100860.84;5010985;28;45390;-65
2022/12/04 07:03:19;;;;;;;;;31.50;24.00;;;;;5.56;67.16;100856.41;5019372;28;45366;-65
2022/12/04 07:05:44;;;;;;;;;39.25;34.00;;;;;5.53;66.80;100862.63;5014255;28;45436;-65
2022/12/04 07:08:10;;;;;;;;;34.50;28.00;;;;;5.53;67.21;100856.44;5016249;28;45477;-65
2022/12/04 07:10:36;;;;;;;;;37.75;32.00;;;;;5.62;66.78;100868.72;5011290;28;45909;-65
2022/12/04 07:13:02;;;;;;;;;39.00;34.25;;;;;5.59;66.96;100864.31;5020030;28;45376;-65
2022/12/04 07:15:27;;;;;;;;;35.25;28.75;;;;;5.68;67.53;100863.34;5033019;28;45526;-65
2022/12/04 07:17:53;;;;;;;;;39.75;32.25;;;;;5.69;67.20;100859.81;5021695;28;45423;-66
2022/12/04 07:20:18;;;;;;;;;42.00;34.00;;;;;5.70;66.92;100873.06;5008362;28;55069;-65
2022/12/04 07:22:44;;;;;;;;;34.75;27.00;;;;;5.66;66.60;100866.00;5016746;28;45565;-65
2022/12/04 07:25:09;;;;;;;;;34.75;32.25;;;;;5.63;66.87;100866.06;5013325;28;45435;-65
2022/12/04 07:27:34;;;;;;;;;33.25;27.25;;;;;5.70;67.34;100874.84;5018526;28;45781;-65
2022/12/04 07:29:59;;;;;;;;;25.50;25.50;;;;;5.73;67.12;100872.13;5018293;28;51285;-65
2022/12/04 07:32:25;;;;;;;;;38.75;35.00;;;;;5.79;66.95;100877.38;5021316;28;53761;-65
2022/12/04 07:34:50;;;;;;;;;44.50;33.00;;;;;5.77;66.85;100873.00;5017867;28;46550;-65
2022/12/04 07:37:15;;;;;;;;;33.75;29.75;;;;;5.74;66.92;100880.06;5021221;28;45601;-65
2022/12/04 07:39:41;;;;;;;;;42.00;34.75;;;;;5.68;67.19;100869.56;5019259;28;45373;-65
2022/12/04 07:42:06;;;;;;;;;43.25;36.00;;;;;5.64;67.65;100859.88;5013027;28;45529;-66
2022/12/04 07:44:31;;;;;;;;;40.75;33.75;;;;;5.68;66.68;100863.34;4993588;28;45540;-65
2022/12/04 07:46:57;;;;;;;;;36.00;32.75;;;;;5.63;67.10;100863.44;5021380;28;45395;-66
2022/12/04 07:49:22;;;;;;;;;39.50;34.75;;;;;5.69;67.54;100870.41;5003033;28;46396;-65
2022/12/04 07:51:48;;;;;;;;;33.00;30.50;;;;;5.69;67.41;100862.47;5020337;28;45428;-68
2022/12/04 07:54:13;;;;;;;;;36.25;28.50;;;;;5.67;67.17;100858.97;5015048;28;45385;-68
2022/12/04 07:56:38;;;;;;;;;33.50;28.25;;;;;5.63;67.03;100858.13;5000354;28;45814;-68
2022/12/04 07:59:04;;;;;;;;;39.50;34.75;;;;;5.64;67.19;100853.69;4986308;28;48391;-68
2022/12/04 08:01:30;;;;;;;;;40.00;35.00;;;;;5.65;67.58;100844.88;5012287;28;48062;-68
2022/12/04 08:03:57;;;;;;;;;38.50;34.75;;;;;5.68;67.59;100851.00;5012977;28;45281;-67
2022/12/04 08:06:25;;;;;;;;;41.00;36.25;;;;;5.65;66.85;100853.69;5013136;28;45378;-68
2022/12/04 08:08:51;;;;;;;;;36.00;30.25;;;;;5.67;67.96;100862.50;5010107;28;45624;-69
2022/12/04 08:11:21;;;;;;;;;38.50;33.25;;;;;5.72;67.47;100859.78;5015156;28;45830;-66
2022/12/04 08:13:46;;;;;;;;;37.75;32.25;;;;;5.73;66.72;100848.28;5013785;28;45539;-65
2022/12/04 08:16:13;;;;;;;;;39.75;37.50;;;;;5.74;67.44;100850.91;5007887;28;45416;-66
2022/12/04 08:18:40;;;;;;;;;50.00;34.75;;;;;5.73;67.38;100849.19;5012764;28;46152;-67
2022/12/04 08:21:10;;;;;;;;;39.00;30.75;;;;;5.77;67.42;100852.69;5001835;28;45975;-65
2022/12/04 08:23:37;;;;;;;;;42.00;36.00;;;;;5.78;67.15;100856.19;5017686;28;45261;-66
2022/12/04 08:26:03;;;;;;;;;46.50;41.00;;;;;5.78;67.02;100843.84;5008913;28;45504;-67
2022/12/04 08:28:29;;;;;;;;;46.25;37.75;;;;;5.78;67.68;100851.78;5013032;28;46020;-67
2022/12/04 08:30:54;;;;;;;;;45.25;40.00;;;;;5.79;66.74;100864.13;4996069;28;46120;-67
2022/12/04 08:33:20;;;;;;;;;40.50;34.25;;;;;5.76;67.26;100858.84;5004148;28;45413;-68
2022/12/04 08:35:45;;;;;;;;;28.25;22.50;;;;;5.80;67.00;100863.25;4998817;28;45416;-64
2022/12/04 08:38:10;;;;;;;;;45.00;35.50;;;;;5.78;67.59;100858.84;5020114;28;45585;-66
2022/12/04 08:40:35;;;;;;;;;43.50;35.00;;;;;5.82;67.79;100863.22;5018651;28;45439;-65
2022/12/04 08:43:01;;;;;;;;;36.25;31.00;;;;;5.86;66.85;100865.81;5019655;28;45367;-65
2022/12/04 08:45:26;;;;;;;;;45.75;37.50;;;;;5.83;66.89;100864.97;4999023;28;45544;-64
2022/12/04 08:47:51;;;;;;;;;41.50;37.00;;;;;5.75;67.02;100855.34;5018558;28;45376;-65
2022/12/04 08:50:17;;;;;;;;;41.25;36.50;;;;;5.83;66.78;100873.81;5018602;28;45377;-67
2022/12/04 08:52:42;;;;;;;;;45.00;37.00;;;;;5.82;67.72;100880.00;5018305;28;45499;-65
2022/12/04 08:55:08;;;;;;;;;38.00;35.50;;;;;5.88;67.34;100881.69;5013728;28;45575;-64
2022/12/04 08:57:33;;;;;;;;;39.00;32.25;;;;;5.86;67.25;100875.53;5002141;28;46317;-64
2022/12/04 08:59:59;;;;;;;;;40.00;31.75;;;;;5.88;67.46;100876.38;5020248;28;45361;-65
2022/12/04 09:02:24;;;;;;;;;41.75;37.25;;;;;5.89;66.78;100875.50;5002521;28;45298;-64
2022/12/04 09:04:49;;;;;;;;;42.75;35.00;;;;;5.87;66.94;100864.91;5017193;28;45558;-64
2022/12/04 09:07:14;;;;;;;;;28.50;22.25;;;;;5.84;66.87;100870.25;5013899;28;45751;-65
2022/12/04 09:09:40;;;;;;;;;37.75;34.75;;;;;5.81;66.88;100882.66;5006655;28;45399;-68
2022/12/04 09:12:05;;;;;;;;;51.25;39.25;;;;;5.79;66.62;100868.56;5014504;28;45463;-64
2022/12/04 09:14:30;;;;;;;;;48.50;41.25;;;;;5.82;67.12;100873.81;5013703;28;45519;-63
2022/12/04 09:16:56;;;;;;;;;47.50;39.50;;;;;5.76;67.87;100872.09;5014415;28;45214;-66
2022/12/04 09:19:21;;;;;;;;;46.25;39.00;;;;;5.82;67.16;100874.69;5011125;28;45401;-64
2022/12/04 09:21:46;;;;;;;;;43.75;39.50;;;;;5.78;66.74;100862.38;5010337;28;45329;-65
2022/12/04 09:24:12;;;;;;;;;47.25;40.25;;;;;5.81;66.81;100872.94;5012446;28;45503;-65
2022/12/04 09:26:38;;;;;;;;;26.00;25.00;;;;;5.81;66.55;100872.06;5016860;28;46226;-65
2022/12/04 09:29:04;;;;;;;;;45.25;39.75;;;;;5.77;67.58;100863.28;5010780;28;45396;-65
2022/12/04 09:31:30;;;;;;;;;48.75;38.25;;;;;5.79;66.72;100873.84;5015202;28;46527;-65
2022/12/04 09:34:00;;;;;;;;;44.00;38.25;;;;;5.76;67.27;100858.84;5015046;28;45408;-65
2022/12/04 09:36:26;;;;;;;;;48.75;38.00;;;;;5.78;66.65;100874.72;5010543;28;46302;-66
2022/12/04 09:38:53;;;;;;;;;37.75;34.25;;;;;5.79;66.89;100871.22;4995670;28;45409;-66
2022/12/04 09:41:27;;;;;;;;;44.25;39.00;;;;;5.79;67.74;100872.06;5015892;28;45563;-66
2022/12/04 09:44:14;;;;;;;;;45.25;39.50;;;;;5.84;67.24;100879.97;5019635;28;45348;-66
2022/12/04 09:46:49;;;;;;;;;52.00;39.50;;;;;5.84;67.39;100879.97;5018408;28;45491;-65
2022/12/04 09:49:22;;;;;;;;;54.25;40.00;;;;;5.86;67.57;100886.13;4994822;28;45449;-65
2022/12/04 09:51:51;;;;;;;;;43.75;38.75;;;;;5.86;67.15;100876.41;5018125;28;45503;-64
2022/12/04 09:54:31;;;;;;;;;42.00;35.50;;;;;5.97;67.81;100888.72;5004004;28;45657;-65
2022/12/04 09:57:39;;;;;;;;;46.75;39.25;;;;;5.91;66.92;100864.00;5011050;28;46021;-66
2022/12/04 10:00:05;;;;;;;;;47.00;41.75;;;;;6.02;66.62;100882.47;4936533;28;45547;-67
2022/12/04 10:02:36;;;;;;;;;44.00;35.50;;;;;5.99;66.71;100871.88;4939936;28;45426;-66
2022/12/04 10:05:02;;;;;;;;;38.75;37.00;;;;;5.93;67.10;100872.81;4969149;28;45637;-67
2022/12/04 10:07:35;;;;;;;;;44.25;38.75;;;;;5.88;67.28;100868.44;5013007;28;45964;-66
2022/12/04 10:10:34;;;;;;;;;46.00;40.25;;;;;5.92;66.91;100873.69;5014292;28;45765;-67
2022/12/04 10:13:18;;;;;;;;;41.00;31.75;;;;;5.96;67.12;100865.72;5015703;28;47009;-64
2022/12/04 10:16:10;;;;;;;;;45.75;41.50;;;;;6.00;67.44;100864.81;5010692;28;46166;-67
2022/12/04 10:18:57;;;;;;;;;36.25;30.00;;;;;6.05;67.06;100869.19;5010796;28;45603;-67
2022/12/04 10:21:41;;;;;;;;;45.50;37.25;;;;;6.07;67.72;100875.31;5014124;28;47428;-66
2022/12/04 10:24:09;;;;;;;;;52.25;39.50;;;;;6.09;67.10;100870.00;5016055;28;45475;-66
2022/12/04 10:26:46;;;;;;;;;42.25;32.00;;;;;6.07;66.75;100862.06;5014229;28;45332;-66
2022/12/04 10:29:34;;;;;;;;;26.75;19.75;;;;;6.14;67.22;100860.22;5016861;28;46115;-68
2022/12/04 10:32:15;;;;;;;;;38.25;34.50;;;;;6.15;67.21;100853.16;5008656;28;45318;-68
2022/12/04 10:34:43;;;;;;;;;37.75;28.75;;;;;6.14;67.47;100854.06;5004643;28;45443;-66
2022/12/04 10:37:13;;;;;;;;;41.25;39.25;;;;;6.14;66.85;100862.00;5012810;28;45536;-65
2022/12/04 10:39:50;;;;;;;;;50.25;40.50;;;;;6.10;66.60;100855.88;5013021;28;46091;-65
2022/12/04 10:43:02;;;;;;;;;50.00;40.00;;;;;6.12;67.02;100860.25;5015957;28;45947;-65
2022/12/04 10:45:27;;;;;;;;;48.25;40.75;;;;;6.17;67.31;100859.34;4965574;28;45369;-65
2022/12/04 10:47:53;;;;;;;;;50.75;41.25;;;;;6.18;66.71;100863.72;5016810;28;45509;-63
2022/12/04 10:50:22;;;;;;;;;45.25;38.75;;;;;6.18;67.28;100861.97;5009284;28;46668;-65
2022/12/04 10:52:49;;;;;;;;;53.25;43.50;;;;;6.17;66.64;100864.63;5006373;28;45486;-64
2022/12/04 10:55:14;;;;;;;;;48.75;42.00;;;;;6.14;66.99;100857.59;5005647;28;45318;-64
2022/12/04 10:57:45;;;;;;;;;44.50;33.25;;;;;6.17;66.85;100860.19;5001913;28;45572;-64
2022/12/04 11:00:34;;;;;;;;;44.00;38.25;;;;;6.21;67.22;100861.91;5001250;28;46414;-63
2022/12/04 11:03:09;;;;;;;;;40.75;34.25;;;;;6.24;67.05;100853.91;5009977;28;45395;-63
2022/12/04 11:05:51;;;;;;;;;50.75;43.25;;;;;6.24;66.93;100853.91;5004982;28;45448;-63
2022/12/04 11:08:34;;;;;;;;;41.75;36.00;;;;;6.30;67.30;100848.53;5003863;28;45393;-62
2022/12/04 11:11:02;;;;;;;;;48.75;41.00;;;;;6.28;66.73;100860.03;5007465;28;45531;-62
2022/12/04 11:13:28;;;;;;;;;45.75;40.50;;;;;6.25;66.81;100854.81;5009720;28;45991;-61
2022/12/04 11:15:55;;;;;;;;;43.75;37.75;;;;;6.32;66.68;100861.78;5004502;28;45344;-62
2022/12/04 11:18:32;;;;;;;;;66.75;45.00;;;;;6.30;67.46;100848.53;5000504;28;45679;-64
2022/12/04 11:21:15;;;;;;;;;48.50;34.25;;;;;6.26;67.27;100838.00;5000128;28;46203;-64
2022/12/04 11:23:46;;;;;;;;;48.50;39.50;;;;;6.28;66.76;100847.69;5014187;28;45349;-62
2022/12/04 11:26:12;;;;;;;;;49.00;41.00;;;;;6.24;67.71;100842.44;5006301;28;45396;-63
2022/12/04 11:28:42;;;;;;;;;49.75;38.50;;;;;6.28;67.55;100841.50;5003209;28;45430;-62
2022/12/04 11:31:14;;;;;;;;;39.75;36.75;;;;;6.27;67.32;100840.63;5004620;28;46531;-64
2022/12/04 11:33:46;;;;;;;;;51.50;43.00;;;;;6.26;66.94;100849.47;4995360;28;45616;-62
2022/12/04 11:36:34;;;;;;;;;56.75;41.25;;;;;6.23;67.20;100841.56;5002225;28;47125;-62
2022/12/04 11:39:42;;;;;;;;;59.00;47.00;;;;;6.24;67.64;100840.66;5007302;28;45669;-62
2022/12/04 11:42:21;;;;;;;;;46.75;37.75;;;;;6.28;67.71;100845.03;5006756;28;46408;-62
2022/12/04 11:45:17;;;;;;;;;56.00;41.75;;;;;6.23;67.30;100836.28;5010044;28;45976;-62